createdAt,value
2023-04-22T00:01:58.629Z,97831.69
2023-04-22T00:05:01.886Z,97831.69
2023-04-22T00:08:04.930Z,97832.13
2023-04-22T00:11:07.677Z,97836.00
2023-04-22T00:14:10.408Z,97835.00
2023-04-22T00:17:13.269Z,97841.72
2023-04-22T00:20:16.975Z,97853.19
2023-04-22T00:23:19.582Z,97846.88
2023-04-22T00:26:22.542Z,97843.31
2023-04-22T00:29:26.155Z,97843.75
2023-04-22T00:32:28.808Z,97845.94
2023-04-22T00:35:31.621Z,97843.31
2023-04-22T00:38:34.393Z,97836.44
2023-04-22T00:41:37.748Z,97841.13
2023-04-22T00:44:41.400Z,97836.03
2023-04-22T00:47:46.031Z,97840.88
2023-04-22T00:50:48.734Z,97833.88
2023-04-22T00:53:51.997Z,97836.06
2023-04-22T00:56:55.530Z,97836.88
2023-04-22T00:59:58.394Z,97836.88
2023-04-22T01:03:03.608Z,97834.69
2023-04-22T01:06:07.115Z,97836.19
2023-04-22T01:09:09.756Z,97844.16
2023-04-22T01:12:12.427Z,97836.75
2023-04-22T01:15:16.132Z,97833.84
2023-04-22T01:18:19.262Z,97843.88
2023-04-22T01:21:22.019Z,97841.94
2023-04-22T01:24:24.827Z,97841.50
2023-04-22T01:27:27.556Z,97842.63
2023-04-22T01:30:30.336Z,97847.84
2023-04-22T01:33:33.018Z,97848.66
2023-04-22T01:36:35.765Z,97842.47
2023-04-22T01:39:38.985Z,97841.09
2023-04-22T01:42:42.125Z,97850.16
2023-04-22T01:45:44.943Z,97843.53
2023-04-22T01:48:51.643Z,97845.59
2023-04-22T01:51:54.428Z,97844.63
2023-04-22T01:54:58.518Z,97847.75
2023-04-22T01:58:01.449Z,97846.22
2023-04-22T02:01:04.631Z,97838.53
2023-04-22T02:04:07.426Z,97840.78
2023-04-22T02:07:10.027Z,97837.72
2023-04-22T02:10:14.218Z,97842.09
2023-04-22T02:13:17.051Z,97840.31
2023-04-22T02:16:19.839Z,97846.69
2023-04-22T02:19:22.557Z,97835.84
2023-04-22T02:22:25.413Z,97833.78
2023-04-22T02:25:28.953Z,97830.63
2023-04-22T02:28:32.358Z,97826.63
2023-04-22T02:31:35.243Z,97831.88
2023-04-22T02:34:38.260Z,97827.88
2023-04-22T02:37:40.965Z,97830.66
2023-04-22T02:40:43.647Z,97827.22
2023-04-22T02:43:47.898Z,97824.28
2023-04-22T02:46:50.953Z,97833.63
2023-04-22T02:49:54.009Z,97831.91
2023-04-22T02:52:56.723Z,97828.44
2023-04-22T02:56:00.223Z,97831.09
2023-04-22T02:59:03.186Z,97839.00
2023-04-22T03:02:06.983Z,97832.34
2023-04-22T03:05:29.519Z,97835.22
2023-04-22T03:08:32.400Z,97837.09
2023-04-22T03:11:35.098Z,97839.50
2023-04-22T03:14:40.863Z,97832.72
2023-04-22T03:17:43.954Z,97838.91
2023-04-22T03:20:50.070Z,97825.97
2023-04-22T03:23:53.961Z,97841.50
2023-04-22T03:26:57.305Z,97837.28
2023-04-22T03:30:00.124Z,97842.78
2023-04-22T03:33:03.195Z,97838.91
2023-04-22T03:36:28.932Z,97835.47
2023-04-22T03:39:32.914Z,97837.16
2023-04-22T03:42:35.845Z,97834.97
2023-04-22T03:45:38.894Z,97838.28
2023-04-22T03:48:55.863Z,97842.78
2023-04-22T03:52:09.069Z,97846.06
2023-04-22T03:55:17.535Z,97848.06
2023-04-22T03:58:22.429Z,97848.66
2023-04-22T04:01:27.114Z,97854.38
2023-04-22T04:04:35.201Z,97851.34
2023-04-22T04:07:38.318Z,97848.47
2023-04-22T04:10:42.591Z,97854.38
2023-04-22T04:13:45.617Z,97855.31
2023-04-22T04:16:59.671Z,97861.25
2023-04-22T04:20:07.402Z,97862.16
2023-04-22T04:23:12.160Z,97862.34
2023-04-22T04:26:15.456Z,97859.34
2023-04-22T04:29:22.061Z,97862.84
2023-04-22T04:32:37.164Z,97865.72
2023-04-22T04:35:43.900Z,97859.28
2023-04-22T04:38:52.474Z,97859.09
2023-04-22T04:41:59.063Z,97860.94
2023-04-22T04:45:05.478Z,97861.28
2023-04-22T04:48:09.361Z,97864.13
2023-04-22T04:51:18.228Z,97871.03
2023-04-22T04:54:30.700Z,97880.69
2023-04-22T04:57:38.254Z,97875.41
2023-04-22T05:00:41.831Z,97877.28
2023-04-22T05:03:46.185Z,97874.75
2023-04-22T05:06:51.486Z,97874.91
2023-04-22T05:09:55.132Z,97873.06
2023-04-22T05:12:59.108Z,97871.53
2023-04-22T05:16:02.573Z,97863.81
2023-04-22T05:19:05.693Z,97863.75
2023-04-22T05:22:09.552Z,97867.56
2023-04-22T05:25:12.543Z,97872.25
2023-04-22T05:28:21.243Z,97857.69
2023-04-22T05:31:29.498Z,97863.88
2023-04-22T05:34:33.780Z,97864.84
2023-04-22T05:37:37.358Z,97865.88
2023-04-22T05:40:40.966Z,97869.19
2023-04-22T05:43:46.745Z,97863.16
2023-04-22T05:46:56.936Z,97862.56
2023-04-22T05:50:03.051Z,97864.59
2023-04-22T05:53:21.734Z,97870.59
2023-04-22T05:56:24.639Z,97866.88
2023-04-22T05:59:27.571Z,97875.59
2023-04-22T06:02:31.375Z,97874.03
2023-04-22T06:05:34.397Z,97874.13
2023-04-22T06:08:37.199Z,97876.38
2023-04-22T06:11:41.185Z,97882.56
2023-04-22T06:14:44.437Z,97873.78
2023-04-22T06:17:49.049Z,97871.09
2023-04-22T06:20:52.417Z,97881.44
2023-04-22T06:23:55.364Z,97868.56
2023-04-22T06:26:58.800Z,97865.34
2023-04-22T06:30:06.136Z,97873.63
2023-04-22T06:33:09.060Z,97874.44
2023-04-22T06:36:11.966Z,97870.50
2023-04-22T06:39:14.880Z,97872.75
2023-04-22T06:42:45.907Z,97876.34
2023-04-22T06:46:11.757Z,97874.91
2023-04-22T06:49:45.304Z,97871.59
2023-04-22T06:53:03.942Z,97869.41
2023-04-22T06:56:07.203Z,97866.84
2023-04-22T06:59:10.119Z,97876.28
2023-04-22T07:02:13.306Z,97864.03
2023-04-22T07:05:16.791Z,97872.78
2023-04-22T07:08:20.180Z,97869.63
2023-04-22T07:11:23.015Z,97871.13
2023-04-22T07:14:45.584Z,97871.28
2023-04-22T07:17:48.379Z,97870.94
2023-04-22T07:20:51.366Z,97872.22
2023-04-22T07:23:54.164Z,97873.75
2023-04-22T07:26:57.922Z,97873.09
2023-04-22T07:30:00.764Z,97876.38
2023-04-22T07:33:04.317Z,97867.88
2023-04-22T07:36:07.220Z,97882.19
2023-04-22T07:39:10.225Z,97874.97
2023-04-22T07:42:13.313Z,97870.78
2023-04-22T07:45:16.089Z,97874.28
2023-04-22T07:48:18.754Z,97870.94
2023-04-22T07:51:21.876Z,97875.09
2023-04-22T07:54:24.973Z,97867.91
2023-04-22T07:57:27.856Z,97870.97
2023-04-22T08:00:31.046Z,97871.34
2023-04-22T08:03:34.031Z,97875.66
2023-04-22T08:06:37.031Z,97868.53
2023-04-22T08:09:40.008Z,97870.56
2023-04-22T08:12:43.239Z,97863.22
2023-04-22T08:15:46.217Z,97866.50
2023-04-22T08:18:49.388Z,97867.13
2023-04-22T08:21:52.257Z,97871.63
2023-04-22T08:24:55.299Z,97872.22
2023-04-22T08:27:58.288Z,97862.25
2023-04-22T08:31:01.054Z,97871.34
2023-04-22T08:34:04.218Z,97863.84
2023-04-22T08:37:07.055Z,97867.38
2023-04-22T08:40:10.097Z,97868.97
2023-04-22T08:43:13.116Z,97872.06
2023-04-22T08:46:16.138Z,97864.28
2023-04-22T08:49:19.764Z,97863.66
2023-04-22T08:52:22.677Z,97861.00
2023-04-22T08:55:26.362Z,97855.47
2023-04-22T08:58:29.401Z,97865.09
2023-04-22T09:01:32.743Z,97862.25
2023-04-22T09:04:35.766Z,97862.03
2023-04-22T09:07:38.966Z,97859.75
2023-04-22T09:10:41.821Z,97858.16
2023-04-22T09:13:44.681Z,97857.31
2023-04-22T09:16:48.748Z,97864.09
2023-04-22T09:19:59.867Z,97859.53
2023-04-22T09:23:05.468Z,97854.16
2023-04-22T09:26:08.840Z,97856.88
2023-04-22T09:29:15.565Z,97850.16
2023-04-22T09:32:18.561Z,97853.84
2023-04-22T09:35:31.757Z,97855.72
2023-04-22T09:38:34.854Z,97858.53
2023-04-22T09:41:39.532Z,97848.56
2023-04-22T09:44:42.587Z,97841.03
2023-04-22T09:47:47.230Z,97840.81
2023-04-22T09:50:51.750Z,97841.56
2023-04-22T09:54:06.775Z,97831.94
2023-04-22T09:57:15.701Z,97831.78
2023-04-22T10:00:19.122Z,97827.81
2023-04-22T10:03:22.184Z,97830.56
2023-04-22T10:06:24.842Z,97830.78
2023-04-22T10:09:27.682Z,97826.56
2023-04-22T10:12:35.778Z,97817.16
2023-04-22T10:15:43.627Z,97822.31
2023-04-22T10:18:46.694Z,97824.00
2023-04-22T10:21:53.404Z,97819.94
2023-04-22T10:24:58.151Z,97809.31
2023-04-22T10:28:06.072Z,97811.81
2023-04-22T10:31:25.096Z,97817.25
2023-04-22T10:34:30.683Z,97812.22
2023-04-22T10:37:34.349Z,97805.13
2023-04-22T10:41:00.554Z,97800.41
2023-04-22T10:44:07.409Z,97806.16
2023-04-22T10:47:10.256Z,97799.34
2023-04-22T10:50:27.194Z,97810.63
2023-04-22T10:53:36.885Z,97802.19
2023-04-22T10:57:05.246Z,97802.34
2023-04-22T11:00:38.205Z,97795.66
2023-04-22T11:03:49.358Z,97800.38
2023-04-22T11:07:14.348Z,97794.50
2023-04-22T11:10:32.384Z,97792.94
2023-04-22T11:13:35.522Z,97785.41
2023-04-22T11:16:38.693Z,97788.63
2023-04-22T11:19:41.527Z,97784.13
2023-04-22T11:22:46.781Z,97784.03
2023-04-22T11:26:01.336Z,97787.78
2023-04-22T11:29:04.182Z,97778.94
2023-04-22T11:32:06.820Z,97773.19
2023-04-22T11:35:11.591Z,97783.50
2023-04-22T11:38:14.810Z,97784.41
2023-04-22T11:41:23.461Z,97783.09
2023-04-22T11:44:26.802Z,97774.53
2023-04-22T11:47:30.974Z,97780.53
2023-04-22T11:50:39.342Z,97773.69
2023-04-22T11:53:50.904Z,97778.06
2023-04-22T11:56:53.595Z,97780.81
2023-04-22T11:59:59.745Z,97778.69
2023-04-22T12:03:08.680Z,97774.53
2023-04-22T12:06:11.876Z,97778.13
2023-04-22T12:09:14.774Z,97770.34
2023-04-22T12:12:17.598Z,97767.13
2023-04-22T12:15:20.445Z,97767.22
2023-04-22T12:18:38.376Z,97764.16
2023-04-22T12:21:42.416Z,97763.94
2023-04-22T12:24:46.815Z,97758.91
2023-04-22T12:27:49.694Z,97765.84
2023-04-22T12:30:52.458Z,97761.09
2023-04-22T12:33:56.338Z,97765.28
2023-04-22T12:36:59.544Z,97767.59
2023-04-22T12:40:02.661Z,97759.75
2023-04-22T12:43:06.483Z,97758.88
2023-04-22T12:46:09.988Z,97751.81
2023-04-22T12:49:14.888Z,97749.69
2023-04-22T12:52:17.789Z,97748.28
2023-04-22T12:55:21.376Z,97742.38
2023-04-22T12:58:24.879Z,97737.19
2023-04-22T13:01:27.864Z,97730.75
2023-04-22T13:04:30.728Z,97743.59
2023-04-22T13:07:33.639Z,97736.78
2023-04-22T13:10:36.603Z,97729.50
2023-04-22T13:13:39.384Z,97730.06
2023-04-22T13:16:42.324Z,97722.94
2023-04-22T13:19:47.946Z,97723.81
2023-04-22T13:22:53.094Z,97706.56
2023-04-22T13:25:56.846Z,97711.59
2023-04-22T13:29:02.019Z,97710.91
2023-04-22T13:32:05.850Z,97698.84
2023-04-22T13:35:09.796Z,97701.47
2023-04-22T13:38:12.599Z,97692.66
2023-04-22T13:41:15.656Z,97693.47
2023-04-22T13:44:18.546Z,97692.16
2023-04-22T13:47:21.404Z,97701.50
2023-04-22T13:50:24.371Z,97698.38
2023-04-22T13:53:27.301Z,97703.25
2023-04-22T13:56:30.249Z,97700.50
2023-04-22T13:59:36.098Z,97700.34
2023-04-22T14:02:39.328Z,97706.44
2023-04-22T14:05:42.081Z,97704.66
2023-04-22T14:08:45.114Z,97706.19
2023-04-22T14:11:47.940Z,97710.88
2023-04-22T14:14:50.697Z,97708.91
2023-04-22T14:17:54.270Z,97706.50
2023-04-22T14:20:57.494Z,97699.13
2023-04-22T14:24:00.647Z,97708.00
2023-04-22T14:27:03.603Z,97701.47
2023-04-22T14:30:08.700Z,97697.94
2023-04-22T14:33:11.621Z,97697.28
2023-04-22T14:36:14.484Z,97702.09
2023-04-22T14:39:17.395Z,97694.13
2023-04-22T14:42:20.719Z,97688.03
2023-04-22T14:45:24.310Z,97685.38
2023-04-22T14:48:31.347Z,97681.09
2023-04-22T14:51:35.337Z,97688.78
2023-04-22T14:54:38.091Z,97693.66
2023-04-22T14:57:41.078Z,97688.66
2023-04-22T15:00:43.917Z,97690.13
2023-04-22T15:03:47.059Z,97683.91
2023-04-22T15:06:49.991Z,97683.69
2023-04-22T15:09:53.668Z,97684.63
2023-04-22T15:12:56.698Z,97681.88
2023-04-22T15:15:59.685Z,97680.47
2023-04-22T15:19:02.438Z,97686.41
2023-04-22T15:22:05.622Z,97684.19
2023-04-22T15:25:10.364Z,97686.06
2023-04-22T15:28:16.029Z,97673.44
2023-04-22T15:31:20.916Z,97680.91
2023-04-22T15:34:24.412Z,97687.69
2023-04-22T15:37:27.494Z,97682.22
2023-04-22T15:40:30.285Z,97685.25
2023-04-22T15:43:33.334Z,97685.81
2023-04-22T15:46:36.247Z,97682.66
2023-04-22T15:49:39.571Z,97675.78
2023-04-22T15:52:42.583Z,97677.34
2023-04-22T15:55:46.851Z,97676.00
2023-04-22T15:58:51.620Z,97679.31
2023-04-22T16:01:54.881Z,97672.75
2023-04-22T16:04:57.956Z,97670.47
2023-04-22T16:08:01.480Z,97674.25
2023-04-22T16:11:04.976Z,97672.03
2023-04-22T16:14:07.868Z,97670.81
2023-04-22T16:17:10.627Z,97675.03
2023-04-22T16:20:13.298Z,97667.25
2023-04-22T16:23:16.418Z,97660.22
2023-04-22T16:26:19.168Z,97666.97
2023-04-22T16:29:21.977Z,97664.94
2023-04-22T16:32:25.161Z,97671.72
2023-04-22T16:35:28.757Z,97671.94
2023-04-22T16:38:34.223Z,97668.63
2023-04-22T16:41:37.118Z,97661.06
2023-04-22T16:44:39.865Z,97661.91
2023-04-22T16:47:42.918Z,97655.09
2023-04-22T16:50:45.637Z,97659.91
2023-04-22T16:53:51.481Z,97664.25
2023-04-22T16:56:54.262Z,97656.53
2023-04-22T16:59:57.237Z,97650.47
2023-04-22T17:03:01.179Z,97664.81
2023-04-22T17:06:04.295Z,97666.84
2023-04-22T17:09:07.568Z,97666.44
2023-04-22T17:12:10.429Z,97668.25
2023-04-22T17:15:13.285Z,97665.56
2023-04-22T17:18:16.420Z,97662.59
2023-04-22T17:21:19.422Z,97668.28
2023-04-22T17:24:22.580Z,97667.78
2023-04-22T17:27:25.329Z,97664.03
2023-04-22T17:30:28.214Z,97665.03
2023-04-22T17:33:31.736Z,97669.53
2023-04-22T17:36:37.231Z,97659.34
2023-04-22T17:39:40.863Z,97650.28
2023-04-22T17:42:46.204Z,97664.03
2023-04-22T17:45:49.494Z,97661.81
2023-04-22T17:48:52.223Z,97674.28
2023-04-22T17:51:55.133Z,97675.72
2023-04-22T17:54:59.829Z,97670.63
2023-04-22T17:58:04.285Z,97677.75
2023-04-22T18:01:07.854Z,97673.78
2023-04-22T18:04:11.009Z,97678.38
2023-04-22T18:07:14.159Z,97692.63
2023-04-22T18:10:17.148Z,97687.91
2023-04-22T18:13:20.614Z,97685.00
2023-04-22T18:16:23.352Z,97689.34
2023-04-22T18:19:26.369Z,97694.34
2023-04-22T18:22:30.509Z,97694.09
2023-04-22T18:25:33.406Z,97693.91
2023-04-22T18:28:37.123Z,97700.56
2023-04-22T18:31:42.781Z,97702.63
2023-04-22T18:34:46.754Z,97707.69
2023-04-22T18:37:49.524Z,97703.47
2023-04-22T18:40:52.267Z,97703.47
2023-04-22T18:43:55.115Z,97702.41
2023-04-22T18:46:57.912Z,97707.03
2023-04-22T18:50:00.950Z,97706.28
2023-04-22T18:53:03.784Z,97712.09
2023-04-22T18:56:07.317Z,97710.16
2023-04-22T18:59:10.218Z,97707.00
2023-04-22T19:02:13.917Z,97710.63
2023-04-22T19:05:19.176Z,97710.81
2023-04-22T19:08:21.912Z,97704.59
2023-04-22T19:11:25.274Z,97714.47
2023-04-22T19:14:28.385Z,97707.44
2023-04-22T19:17:31.322Z,97709.28
2023-04-22T19:20:34.075Z,97713.91
2023-04-22T19:23:37.244Z,97711.94
2023-04-22T19:26:40.209Z,97711.63
2023-04-22T19:29:43.583Z,97715.22
2023-04-22T19:32:46.540Z,97708.66
2023-04-22T19:35:49.248Z,97710.63
2023-04-22T19:38:52.276Z,97713.09
2023-04-22T19:41:55.109Z,97716.22
2023-04-22T19:44:59.274Z,97711.94
2023-04-22T19:48:02.419Z,97711.09
2023-04-22T19:51:06.612Z,97712.28
2023-04-22T19:54:11.171Z,97709.97
2023-04-22T19:57:14.396Z,97715.41
2023-04-22T20:00:18.195Z,97711.25
2023-04-22T20:03:21.613Z,97712.41
2023-04-22T20:06:24.629Z,97711.91
2023-04-22T20:09:27.862Z,97713.53
2023-04-22T20:12:31.251Z,97707.97
2023-04-22T20:15:34.134Z,97714.66
2023-04-22T20:18:37.680Z,97707.44
2023-04-22T20:21:40.682Z,97712.34
2023-04-22T20:24:43.817Z,97715.47
2023-04-22T20:27:47.365Z,97714.91
2023-04-22T20:30:50.380Z,97712.38
2023-04-22T20:33:53.277Z,97707.63
2023-04-22T20:36:56.433Z,97715.13
2023-04-22T20:40:02.130Z,97710.16
2023-04-22T20:43:05.142Z,97713.09
2023-04-22T20:46:08.082Z,97703.53
2023-04-22T20:49:10.842Z,97709.47
2023-04-22T20:52:13.659Z,97698.22
2023-04-22T20:55:17.296Z,97702.53
2023-04-22T20:58:22.573Z,97700.84
2023-04-22T21:01:29.585Z,97708.00
2023-04-22T21:04:33.696Z,97703.38
2023-04-22T21:07:38.306Z,97706.38
2023-04-22T21:10:41.526Z,97705.72
2023-04-22T21:13:45.035Z,97695.31
2023-04-22T21:16:54.299Z,97693.78
2023-04-22T21:19:58.018Z,97704.84
2023-04-22T21:23:01.781Z,97705.81
2023-04-22T21:26:05.741Z,97711.06
2023-04-22T21:29:08.876Z,97708.13
2023-04-22T21:32:11.940Z,97708.41
2023-04-22T21:35:15.094Z,97717.88
2023-04-22T21:38:17.838Z,97716.84
2023-04-22T21:41:20.686Z,97714.88
2023-04-22T21:44:23.511Z,97722.59
2023-04-22T21:47:26.426Z,97722.78
2023-04-22T21:50:30.756Z,97721.94
2023-04-22T21:53:33.753Z,97714.69
2023-04-22T21:56:36.621Z,97724.19
2023-04-22T21:59:39.572Z,97731.88
2023-04-22T22:02:43.521Z,97719.84
2023-04-22T22:05:46.375Z,97722.47
2023-04-22T22:08:49.028Z,97728.38
2023-04-22T22:11:51.789Z,97724.56
2023-04-22T22:14:54.574Z,97734.00
2023-04-22T22:17:57.870Z,97737.84
2023-04-22T22:21:00.822Z,97731.44
2023-04-22T22:24:04.049Z,97729.72
2023-04-22T22:27:07.509Z,97735.81
2023-04-22T22:30:10.276Z,97734.53
2023-04-22T22:33:13.086Z,97738.72
2023-04-22T22:36:16.538Z,97740.06
2023-04-22T22:39:19.407Z,97742.06
2023-04-22T22:42:22.180Z,97737.97
2023-04-22T22:45:24.814Z,97739.16
2023-04-22T22:48:27.621Z,97737.50
2023-04-22T22:51:30.229Z,97739.50
2023-04-22T22:54:37.919Z,97740.19
2023-04-22T22:57:40.618Z,97739.16
2023-04-22T23:00:43.422Z,97737.41
2023-04-22T23:03:47.504Z,97734.91
2023-04-22T23:06:50.452Z,97736.50
2023-04-22T23:09:53.235Z,97737.78
2023-04-22T23:12:55.894Z,97745.81
2023-04-22T23:15:59.783Z,97735.28
2023-04-22T23:19:03.132Z,97736.50
2023-04-22T23:22:07.195Z,97736.66
2023-04-22T23:25:10.814Z,97732.53
2023-04-22T23:28:14.184Z,97733.44
2023-04-22T23:31:17.563Z,97731.34
2023-04-22T23:34:23.171Z,97740.47
2023-04-22T23:37:28.670Z,97731.84
2023-04-22T23:40:31.318Z,97735.16
2023-04-22T23:43:34.037Z,97736.34
2023-04-22T23:46:36.861Z,97735.00
2023-04-22T23:49:39.543Z,97737.63
2023-04-22T23:52:44.636Z,97733.38
2023-04-22T23:55:47.956Z,97730.13
2023-04-22T23:58:51.506Z,97732.75
